sensor_id;sensor_type;location;lat;lon;timestamp;temperature;humidity
76759;DHT22;65701;45.588;5.186;2024-03-22T00:02:24;12.17;68.96
76759;DHT22;65701;45.588;5.186;2024-03-22T00:04:50;12.18;68.81
76759;DHT22;65701;45.588;5.186;2024-03-22T00:07:15;12.24;68.78
76759;DHT22;65701;45.588;5.186;2024-03-22T00:09:41;12.24;68.75
76759;DHT22;65701;45.588;5.186;2024-03-22T00:12:06;12.24;68.61
76759;DHT22;65701;45.588;5.186;2024-03-22T00:14:32;12.25;68.78
76759;DHT22;65701;45.588;5.186;2024-03-22T00:16:57;12.23;69.00
76759;DHT22;65701;45.588;5.186;2024-03-22T00:19:23;12.18;68.85
76759;DHT22;65701;45.588;5.186;2024-03-22T00:21:48;12.17;68.63
76759;DHT22;65701;45.588;5.186;2024-03-22T00:24:14;12.18;68.62
76759;DHT22;65701;45.588;5.186;2024-03-22T00:26:39;12.21;68.60
76759;DHT22;65701;45.588;5.186;2024-03-22T00:29:05;12.20;68.56
76759;DHT22;65701;45.588;5.186;2024-03-22T00:31:30;12.21;68.40
76759;DHT22;65701;45.588;5.186;2024-03-22T00:33:56;12.21;68.34
76759;DHT22;65701;45.588;5.186;2024-03-22T00:36:21;12.21;68.28
76759;DHT22;65701;45.588;5.186;2024-03-22T00:38:47;12.21;68.32
76759;DHT22;65701;45.588;5.186;2024-03-22T00:41:12;12.21;68.62
76759;DHT22;65701;45.588;5.186;2024-03-22T00:43:38;12.21;68.82
76759;DHT22;65701;45.588;5.186;2024-03-22T00:46:04;12.21;69.34
76759;DHT22;65701;45.588;5.186;2024-03-22T00:48:29;12.18;69.51
76759;DHT22;65701;45.588;5.186;2024-03-22T00:50:55;12.23;69.63
76759;DHT22;65701;45.588;5.186;2024-03-22T00:53:20;12.23;69.62
76759;DHT22;65701;45.588;5.186;2024-03-22T00:55:46;12.27;69.66
76759;DHT22;65701;45.588;5.186;2024-03-22T00:58:18;12.25;69.67
76759;DHT22;65701;45.588;5.186;2024-03-22T01:00:44;12.28;69.74
76759;DHT22;65701;45.588;5.186;2024-03-22T01:03:10;12.30;69.71
76759;DHT22;65701;45.588;5.186;2024-03-22T01:05:36;12.30;69.73
76759;DHT22;65701;45.588;5.186;2024-03-22T01:08:01;12.30;69.68
76759;DHT22;65701;45.588;5.186;2024-03-22T01:10:27;12.31;70.12
76759;DHT22;65701;45.588;5.186;2024-03-22T01:12:52;12.31;70.18
76759;DHT22;65701;45.588;5.186;2024-03-22T01:15:18;12.32;70.07
76759;DHT22;65701;45.588;5.186;2024-03-22T01:17:43;12.35;70.24
76759;DHT22;65701;45.588;5.186;2024-03-22T01:20:10;12.34;70.34
76759;DHT22;65701;45.588;5.186;2024-03-22T01:22:35;12.34;70.39
76759;DHT22;65701;45.588;5.186;2024-03-22T01:25:02;12.37;70.45
76759;DHT22;65701;45.588;5.186;2024-03-22T01:27:28;12.38;70.45
76759;DHT22;65701;45.588;5.186;2024-03-22T01:29:53;12.38;70.48
76759;DHT22;65701;45.588;5.186;2024-03-22T01:32:19;12.41;70.52
76759;DHT22;65701;45.588;5.186;2024-03-22T01:34:44;12.42;70.60
76759;DHT22;65701;45.588;5.186;2024-03-22T01:37:09;12.44;70.61
76759;DHT22;65701;45.588;5.186;2024-03-22T01:39:35;12.45;70.83
76759;DHT22;65701;45.588;5.186;2024-03-22T01:42:00;12.44;70.90
76759;DHT22;65701;45.588;5.186;2024-03-22T01:44:31;12.46;70.91
76759;DHT22;65701;45.588;5.186;2024-03-22T01:46:57;12.45;70.96
76759;DHT22;65701;45.588;5.186;2024-03-22T01:49:25;12.45;71.08
76759;DHT22;65701;45.588;5.186;2024-03-22T01:51:51;12.48;71.07
76759;DHT22;65701;45.588;5.186;2024-03-22T01:54:17;12.45;70.98
76759;DHT22;65701;45.588;5.186;2024-03-22T01:56:42;12.48;70.96
76759;DHT22;65701;45.588;5.186;2024-03-22T01:59:08;12.48;70.89
76759;DHT22;65701;45.588;5.186;2024-03-22T02:01:35;12.46;70.92
76759;DHT22;65701;45.588;5.186;2024-03-22T02:04:01;12.46;70.79
76759;DHT22;65701;45.588;5.186;2024-03-22T02:06:26;12.48;70.76
76759;DHT22;65701;45.588;5.186;2024-03-22T02:08:52;12.45;71.02
76759;DHT22;65701;45.588;5.186;2024-03-22T02:11:18;12.44;71.37
76759;DHT22;65701;45.588;5.186;2024-03-22T02:13:44;12.37;71.84
76759;DHT22;65701;45.588;5.186;2024-03-22T02:16:09;12.34;71.71
76759;DHT22;65701;45.588;5.186;2024-03-22T02:18:35;12.32;71.55
76759;DHT22;65701;45.588;5.186;2024-03-22T02:21:01;12.31;72.71
76759;DHT22;65701;45.588;5.186;2024-03-22T02:23:36;12.28;72.38
76759;DHT22;65701;45.588;5.186;2024-03-22T02:26:03;12.30;72.11
76759;DHT22;65701;45.588;5.186;2024-03-22T02:28:29;12.34;71.90
76759;DHT22;65701;45.588;5.186;2024-03-22T02:30:55;12.37;71.77
76759;DHT22;65701;45.588;5.186;2024-03-22T02:33:21;12.37;71.71
76759;DHT22;65701;45.588;5.186;2024-03-22T02:35:47;12.37;71.46
76759;DHT22;65701;45.588;5.186;2024-03-22T02:38:13;12.35;71.36
76759;DHT22;65701;45.588;5.186;2024-03-22T02:40:38;12.38;71.53
76759;DHT22;65701;45.588;5.186;2024-03-22T02:43:04;12.38;71.56
76759;DHT22;65701;45.588;5.186;2024-03-22T02:45:30;12.38;71.73
76759;DHT22;65701;45.588;5.186;2024-03-22T02:47:56;12.35;72.38
76759;DHT22;65701;45.588;5.186;2024-03-22T02:50:21;12.34;72.33
76759;DHT22;65701;45.588;5.186;2024-03-22T02:52:48;12.31;72.26
76759;DHT22;65701;45.588;5.186;2024-03-22T02:55:14;12.24;72.76
76759;DHT22;65701;45.588;5.186;2024-03-22T02:57:39;12.25;72.45
76759;DHT22;65701;45.588;5.186;2024-03-22T03:00:05;12.24;72.11
76759;DHT22;65701;45.588;5.186;2024-03-22T03:02:31;12.28;72.03
76759;DHT22;65701;45.588;5.186;2024-03-22T03:04:57;12.30;72.01
76759;DHT22;65701;45.588;5.186;2024-03-22T03:07:24;12.31;72.49
76759;DHT22;65701;45.588;5.186;2024-03-22T03:09:49;12.30;72.28
76759;DHT22;65701;45.588;5.186;2024-03-22T03:12:15;12.32;72.17
76759;DHT22;65701;45.588;5.186;2024-03-22T03:14:40;12.32;72.20
76759;DHT22;65701;45.588;5.186;2024-03-22T03:17:06;12.31;72.24
76759;DHT22;65701;45.588;5.186;2024-03-22T03:19:31;12.32;72.20
76759;DHT22;65701;45.588;5.186;2024-03-22T03:21:57;12.32;72.16
76759;DHT22;65701;45.588;5.186;2024-03-22T03:24:22;12.32;72.13
76759;DHT22;65701;45.588;5.186;2024-03-22T03:26:47;12.32;72.15
76759;DHT22;65701;45.588;5.186;2024-03-22T03:29:13;12.34;72.09
76759;DHT22;65701;45.588;5.186;2024-03-22T03:31:38;12.34;72.09
76759;DHT22;65701;45.588;5.186;2024-03-22T03:34:04;12.35;72.05
76759;DHT22;65701;45.588;5.186;2024-03-22T03:36:29;12.37;71.95
76759;DHT22;65701;45.588;5.186;2024-03-22T03:38:55;12.37;71.91
76759;DHT22;65701;45.588;5.186;2024-03-22T03:41:20;12.38;71.88
76759;DHT22;65701;45.588;5.186;2024-03-22T03:43:46;12.37;72.04
76759;DHT22;65701;45.588;5.186;2024-03-22T03:46:11;12.35;72.04
76759;DHT22;65701;45.588;5.186;2024-03-22T03:48:37;12.32;72.11
76759;DHT22;65701;45.588;5.186;2024-03-22T03:51:02;12.31;72.07
76759;DHT22;65701;45.588;5.186;2024-03-22T03:53:29;12.31;72.25
76759;DHT22;65701;45.588;5.186;2024-03-22T03:55:55;12.28;72.60
76759;DHT22;65701;45.588;5.186;2024-03-22T03:58:20;12.24;72.67
76759;DHT22;65701;45.588;5.186;2024-03-22T04:00:46;12.25;72.58
76759;DHT22;65701;45.588;5.186;2024-03-22T04:03:11;12.24;72.91
76759;DHT22;65701;45.588;5.186;2024-03-22T04:05:37;12.20;73.26
76759;DHT22;65701;45.588;5.186;2024-03-22T04:08:02;12.18;73.39
76759;DHT22;65701;45.588;5.186;2024-03-22T04:10:28;12.21;73.14
76759;DHT22;65701;45.588;5.186;2024-03-22T04:12:53;12.21;73.55
76759;DHT22;65701;45.588;5.186;2024-03-22T04:15:19;12.21;73.59
76759;DHT22;65701;45.588;5.186;2024-03-22T04:17:44;12.18;73.74
76759;DHT22;65701;45.588;5.186;2024-03-22T04:20:10;12.23;73.73
76759;DHT22;65701;45.588;5.186;2024-03-22T04:22:37;12.21;73.48
76759;DHT22;65701;45.588;5.186;2024-03-22T04:25:02;12.17;73.22
76759;DHT22;65701;45.588;5.186;2024-03-22T04:27:28;12.16;73.12
76759;DHT22;65701;45.588;5.186;2024-03-22T04:29:53;12.10;73.12
76759;DHT22;65701;45.588;5.186;2024-03-22T04:32:19;12.04;73.19
76759;DHT22;65701;45.588;5.186;2024-03-22T04:34:44;12.03;73.00
76759;DHT22;65701;45.588;5.186;2024-03-22T04:37:10;11.98;73.09
76759;DHT22;65701;45.588;5.186;2024-03-22T04:39:37;11.97;73.20
76759;DHT22;65701;45.588;5.186;2024-03-22T04:42:03;11.97;73.41
76759;DHT22;65701;45.588;5.186;2024-03-22T04:44:29;11.97;73.29
76759;DHT22;65701;45.588;5.186;2024-03-22T04:46:55;11.98;73.16
76759;DHT22;65701;45.588;5.186;2024-03-22T04:49:20;12.01;73.07
76759;DHT22;65701;45.588;5.186;2024-03-22T04:51:46;12.01;73.03
76759;DHT22;65701;45.588;5.186;2024-03-22T04:54:12;11.98;73.01
76759;DHT22;65701;45.588;5.186;2024-03-22T04:56:38;12.00;72.93
76759;DHT22;65701;45.588;5.186;2024-03-22T04:59:03;11.96;72.86
76759;DHT22;65701;45.588;5.186;2024-03-22T05:01:29;11.96;72.95
76759;DHT22;65701;45.588;5.186;2024-03-22T05:03:54;11.94;73.28
76759;DHT22;65701;45.588;5.186;2024-03-22T05:06:20;11.94;73.07
76759;DHT22;65701;45.588;5.186;2024-03-22T05:08:45;11.96;73.17
76759;DHT22;65701;45.588;5.186;2024-03-22T05:11:11;11.96;73.06
76759;DHT22;65701;45.588;5.186;2024-03-22T05:13:36;11.96;73.09
76759;DHT22;65701;45.588;5.186;2024-03-22T05:16:02;11.91;73.12
76759;DHT22;65701;45.588;5.186;2024-03-22T05:18:27;11.91;73.26
76759;DHT22;65701;45.588;5.186;2024-03-22T05:20:53;11.91;73.12
76759;DHT22;65701;45.588;5.186;2024-03-22T05:23:18;11.90;72.98
76759;DHT22;65701;45.588;5.186;2024-03-22T05:25:44;11.87;73.07
76759;DHT22;65701;45.588;5.186;2024-03-22T05:28:09;11.87;73.05
76759;DHT22;65701;45.588;5.186;2024-03-22T05:30:35;11.87;72.97
76759;DHT22;65701;45.588;5.186;2024-03-22T05:33:00;11.86;72.81
76759;DHT22;65701;45.588;5.186;2024-03-22T05:35:27;11.83;72.77
76759;DHT22;65701;45.588;5.186;2024-03-22T05:37:52;11.79;73.07
76759;DHT22;65701;45.588;5.186;2024-03-22T05:40:18;11.79;73.05
76759;DHT22;65701;45.588;5.186;2024-03-22T05:42:43;11.79;72.95
76759;DHT22;65701;45.588;5.186;2024-03-22T05:45:09;11.75;72.84
76759;DHT22;65701;45.588;5.186;2024-03-22T05:47:35;11.73;72.81
76759;DHT22;65701;45.588;5.186;2024-03-22T05:50:02;11.73;72.85
76759;DHT22;65701;45.588;5.186;2024-03-22T05:52:28;11.76;72.72
76759;DHT22;65701;45.588;5.186;2024-03-22T05:54:54;11.72;72.74
76759;DHT22;65701;45.588;5.186;2024-03-22T05:57:20;11.73;72.75
76759;DHT22;65701;45.588;5.186;2024-03-22T05:59:46;11.75;72.76
76759;DHT22;65701;45.588;5.186;2024-03-22T06:02:11;11.77;72.77
76759;DHT22;65701;45.588;5.186;2024-03-22T06:04:37;11.79;72.71
76759;DHT22;65701;45.588;5.186;2024-03-22T06:07:02;11.83;72.73
76759;DHT22;65701;45.588;5.186;2024-03-22T06:09:29;11.83;72.62
76759;DHT22;65701;45.588;5.186;2024-03-22T06:12:12;11.85;72.87
76759;DHT22;65701;45.588;5.186;2024-03-22T06:14:37;11.89;73.13
76759;DHT22;65701;45.588;5.186;2024-03-22T06:17:03;11.91;73.21
76759;DHT22;65701;45.588;5.186;2024-03-22T06:19:29;11.98;73.32
76759;DHT22;65701;45.588;5.186;2024-03-22T06:21:54;12.03;73.40
76759;DHT22;65701;45.588;5.186;2024-03-22T06:24:20;12.08;73.57
76759;DHT22;65701;45.588;5.186;2024-03-22T06:26:45;12.17;73.72
76759;DHT22;65701;45.588;5.186;2024-03-22T06:29:11;12.24;73.77
76759;DHT22;65701;45.588;5.186;2024-03-22T06:31:37;12.28;73.93
76759;DHT22;65701;45.588;5.186;2024-03-22T06:34:03;12.34;73.87
76759;DHT22;65701;45.588;5.186;2024-03-22T06:36:30;12.42;73.91
76759;DHT22;65701;45.588;5.186;2024-03-22T06:38:56;12.51;73.81
76759;DHT22;65701;45.588;5.186;2024-03-22T06:41:23;12.58;73.86
76759;DHT22;65701;45.588;5.186;2024-03-22T06:43:49;12.68;73.79
76759;DHT22;65701;45.588;5.186;2024-03-22T06:46:14;12.76;73.96
76759;DHT22;65701;45.588;5.186;2024-03-22T06:48:39;12.87;74.13
76759;DHT22;65701;45.588;5.186;2024-03-22T06:51:05;12.99;74.34
76759;DHT22;65701;45.588;5.186;2024-03-22T06:53:30;13.11;74.47
76759;DHT22;65701;45.588;5.186;2024-03-22T06:55:56;13.25;74.28
76759;DHT22;65701;45.588;5.186;2024-03-22T06:58:21;13.37;74.21
76759;DHT22;65701;45.588;5.186;2024-03-22T07:00:47;13.50;74.05
76759;DHT22;65701;45.588;5.186;2024-03-22T07:03:12;13.59;74.00
76759;DHT22;65701;45.588;5.186;2024-03-22T07:05:38;13.70;74.18
76759;DHT22;65701;45.588;5.186;2024-03-22T07:08:03;13.82;73.97
76759;DHT22;65701;45.588;5.186;2024-03-22T07:10:29;13.90;74.06
76759;DHT22;65701;45.588;5.186;2024-03-22T07:12:56;14.04;73.81
76759;DHT22;65701;45.588;5.186;2024-03-22T07:15:23;14.17;73.56
76759;DHT22;65701;45.588;5.186;2024-03-22T07:17:49;14.34;73.45
76759;DHT22;65701;45.588;5.186;2024-03-22T07:20:15;14.52;73.21
76759;DHT22;65701;45.588;5.186;2024-03-22T07:22:40;14.65;72.89
76759;DHT22;65701;45.588;5.186;2024-03-22T07:25:06;14.85;72.41
76759;DHT22;65701;45.588;5.186;2024-03-22T07:27:31;15.03;72.14
76759;DHT22;65701;45.588;5.186;2024-03-22T07:29:57;15.20;71.77
76759;DHT22;65701;45.588;5.186;2024-03-22T07:32:22;15.35;71.39
76759;DHT22;65701;45.588;5.186;2024-03-22T07:34:48;15.54;71.06
76759;DHT22;65701;45.588;5.186;2024-03-22T07:37:13;15.71;70.68
76759;DHT22;65701;45.588;5.186;2024-03-22T07:39:39;15.88;70.42
76759;DHT22;65701;45.588;5.186;2024-03-22T07:42:05;16.05;70.15
76759;DHT22;65701;45.588;5.186;2024-03-22T07:44:30;16.20;69.90
76759;DHT22;65701;45.588;5.186;2024-03-22T07:46:56;16.35;69.62
76759;DHT22;65701;45.588;5.186;2024-03-22T07:49:22;16.45;69.19
76759;DHT22;65701;45.588;5.186;2024-03-22T07:51:47;16.57;68.99
76759;DHT22;65701;45.588;5.186;2024-03-22T07:54:13;16.72;68.54
76759;DHT22;65701;45.588;5.186;2024-03-22T07:56:38;16.80;68.45
76759;DHT22;65701;45.588;5.186;2024-03-22T07:59:04;16.92;68.16
76759;DHT22;65701;45.588;5.186;2024-03-22T08:01:30;17.06;67.97
76759;DHT22;65701;45.588;5.186;2024-03-22T08:03:55;17.09;67.61
76759;DHT22;65701;45.588;5.186;2024-03-22T08:06:21;17.15;67.50
76759;DHT22;65701;45.588;5.186;2024-03-22T08:08:46;17.20;67.31
76759;DHT22;65701;45.588;5.186;2024-03-22T08:11:12;17.30;67.76
76759;DHT22;65701;45.588;5.186;2024-03-22T08:13:37;17.44;68.23
76759;DHT22;65701;45.588;5.186;2024-03-22T08:16:04;17.61;68.04
76759;DHT22;65701;45.588;5.186;2024-03-22T08:18:29;17.68;67.40
76759;DHT22;65701;45.588;5.186;2024-03-22T08:20:55;17.79;67.11
76759;DHT22;65701;45.588;5.186;2024-03-22T08:23:20;17.89;66.68
76759;DHT22;65701;45.588;5.186;2024-03-22T08:25:48;18.00;66.52
76759;DHT22;65701;45.588;5.186;2024-03-22T08:28:13;18.10;65.77
76759;DHT22;65701;45.588;5.186;2024-03-22T08:30:39;18.23;66.23
76759;DHT22;65701;45.588;5.186;2024-03-22T08:33:04;18.38;66.36
76759;DHT22;65701;45.588;5.186;2024-03-22T08:35:30;18.52;66.63
76759;DHT22;65701;45.588;5.186;2024-03-22T08:37:56;18.71;66.67
76759;DHT22;65701;45.588;5.186;2024-03-22T08:40:22;18.89;66.41
76759;DHT22;65701;45.588;5.186;2024-03-22T08:42:48;19.06;66.07
76759;DHT22;65701;45.588;5.186;2024-03-22T08:45:14;19.24;65.99
76759;DHT22;65701;45.588;5.186;2024-03-22T08:47:39;19.44;65.27
76759;DHT22;65701;45.588;5.186;2024-03-22T08:50:06;19.55;64.85
76759;DHT22;65701;45.588;5.186;2024-03-22T08:52:32;19.62;64.10
76759;DHT22;65701;45.588;5.186;2024-03-22T08:54:59;19.65;64.15
76759;DHT22;65701;45.588;5.186;2024-03-22T08:57:25;19.62;63.53
76759;DHT22;65701;45.588;5.186;2024-03-22T08:59:50;19.62;63.12
76759;DHT22;65701;45.588;5.186;2024-03-22T09:02:16;19.57;62.81
76759;DHT22;65701;45.588;5.186;2024-03-22T09:04:41;19.51;62.95
76759;DHT22;65701;45.588;5.186;2024-03-22T09:07:07;19.57;63.11
76759;DHT22;65701;45.588;5.186;2024-03-22T09:09:32;19.62;62.40
76759;DHT22;65701;45.588;5.186;2024-03-22T09:11:58;19.70;62.74
76759;DHT22;65701;45.588;5.186;2024-03-22T09:14:23;19.74;62.33
76759;DHT22;65701;45.588;5.186;2024-03-22T09:16:49;19.82;62.25
76759;DHT22;65701;45.588;5.186;2024-03-22T09:19:14;19.89;62.39
76759;DHT22;65701;45.588;5.186;2024-03-22T09:21:40;20.00;62.12
76759;DHT22;65701;45.588;5.186;2024-03-22T09:24:05;20.04;62.28
76759;DHT22;65701;45.588;5.186;2024-03-22T09:26:32;20.13;61.54
76759;DHT22;65701;45.588;5.186;2024-03-22T09:28:58;20.25;61.70
76759;DHT22;65701;45.588;5.186;2024-03-22T09:31:24;20.34;61.57
76759;DHT22;65701;45.588;5.186;2024-03-22T09:33:49;20.36;61.57
76759;DHT22;65701;45.588;5.186;2024-03-22T09:36:15;20.45;61.37
76759;DHT22;65701;45.588;5.186;2024-03-22T09:38:41;20.48;61.20
76759;DHT22;65701;45.588;5.186;2024-03-22T09:41:06;20.45;60.73
76759;DHT22;65701;45.588;5.186;2024-03-22T09:43:33;20.44;60.72
76759;DHT22;65701;45.588;5.186;2024-03-22T09:46:00;20.51;60.64
76759;DHT22;65701;45.588;5.186;2024-03-22T09:48:26;20.57;60.13
76759;DHT22;65701;45.588;5.186;2024-03-22T09:50:52;20.71;59.76
76759;DHT22;65701;45.588;5.186;2024-03-22T09:53:20;20.80;59.68
76759;DHT22;65701;45.588;5.186;2024-03-22T09:55:47;20.78;56.82
76759;DHT22;65701;45.588;5.186;2024-03-22T09:58:13;20.85;56.74
76759;DHT22;65701;45.588;5.186;2024-03-22T10:00:38;20.94;56.65
76759;DHT22;65701;45.588;5.186;2024-03-22T10:03:04;21.03;56.84
76759;DHT22;65701;45.588;5.186;2024-03-22T10:05:31;21.18;57.29
76759;DHT22;65701;45.588;5.186;2024-03-22T10:07:58;21.33;57.57
76759;DHT22;65701;45.588;5.186;2024-03-22T10:10:24;21.29;55.11
76759;DHT22;65701;45.588;5.186;2024-03-22T10:12:50;21.37;55.35
76759;DHT22;65701;45.588;5.186;2024-03-22T10:15:18;21.47;55.61
76759;DHT22;65701;45.588;5.186;2024-03-22T10:17:44;21.51;55.47
76759;DHT22;65701;45.588;5.186;2024-03-22T10:20:12;21.55;55.93
76759;DHT22;65701;45.588;5.186;2024-03-22T10:22:53;21.68;56.05
76759;DHT22;65701;45.588;5.186;2024-03-22T10:25:20;21.77;56.34
76759;DHT22;65701;45.588;5.186;2024-03-22T10:27:46;21.84;56.69
76759;DHT22;65701;45.588;5.186;2024-03-22T10:30:12;21.97;56.54
76759;DHT22;65701;45.588;5.186;2024-03-22T10:32:42;22.04;55.31
76759;DHT22;65701;45.588;5.186;2024-03-22T10:35:11;22.12;54.90
76759;DHT22;65701;45.588;5.186;2024-03-22T10:37:38;22.13;54.44
76759;DHT22;65701;45.588;5.186;2024-03-22T10:40:05;22.20;54.87
76759;DHT22;65701;45.588;5.186;2024-03-22T10:42:38;22.28;54.80
76759;DHT22;65701;45.588;5.186;2024-03-22T10:45:08;22.28;54.91
76759;DHT22;65701;45.588;5.186;2024-03-22T10:47:35;22.36;53.31
76759;DHT22;65701;45.588;5.186;2024-03-22T10:50:05;22.40;52.56
76759;DHT22;65701;45.588;5.186;2024-03-22T10:53:01;22.10;52.09
76759;DHT22;65701;45.588;5.186;2024-03-22T10:55:37;22.33;51.73
76759;DHT22;65701;45.588;5.186;2024-03-22T10:58:03;22.17;51.38
76759;DHT22;65701;45.588;5.186;2024-03-22T11:00:33;22.19;51.11
76759;DHT22;65701;45.588;5.186;2024-03-22T11:03:02;22.12;51.32
76759;DHT22;65701;45.588;5.186;2024-03-22T11:05:28;22.13;50.90
76759;DHT22;65701;45.588;5.186;2024-03-22T11:08:04;22.16;51.71
76759;DHT22;65701;45.588;5.186;2024-03-22T11:10:33;22.13;50.85
76759;DHT22;65701;45.588;5.186;2024-03-22T11:13:02;22.16;51.01
76759;DHT22;65701;45.588;5.186;2024-03-22T11:15:29;22.09;50.18
76759;DHT22;65701;45.588;5.186;2024-03-22T11:17:55;22.09;50.41
76759;DHT22;65701;45.588;5.186;2024-03-22T11:20:20;21.98;50.15
76759;DHT22;65701;45.588;5.186;2024-03-22T11:22:46;22.04;50.17
76759;DHT22;65701;45.588;5.186;2024-03-22T11:25:12;22.01;50.54
76759;DHT22;65701;45.588;5.186;2024-03-22T11:27:37;21.98;50.36
76759;DHT22;65701;45.588;5.186;2024-03-22T11:30:03;21.99;50.13
76759;DHT22;65701;45.588;5.186;2024-03-22T11:32:29;21.99;49.47
76759;DHT22;65701;45.588;5.186;2024-03-22T11:34:55;22.06;49.30
76759;DHT22;65701;45.588;5.186;2024-03-22T11:37:21;22.10;48.92
76759;DHT22;65701;45.588;5.186;2024-03-22T11:39:47;22.16;48.80
76759;DHT22;65701;45.588;5.186;2024-03-22T11:42:13;22.25;49.33
76759;DHT22;65701;45.588;5.186;2024-03-22T11:44:40;22.30;49.87
76759;DHT22;65701;45.588;5.186;2024-03-22T11:47:06;22.44;50.19
76759;DHT22;65701;45.588;5.186;2024-03-22T11:49:31;22.50;49.62
76759;DHT22;65701;45.588;5.186;2024-03-22T11:51:57;22.64;50.14
76759;DHT22;65701;45.588;5.186;2024-03-22T11:54:22;22.74;50.22
76759;DHT22;65701;45.588;5.186;2024-03-22T11:56:51;22.80;50.04
76759;DHT22;65701;45.588;5.186;2024-03-22T11:59:19;22.65;48.33
76759;DHT22;65701;45.588;5.186;2024-03-22T12:01:45;22.74;48.81
76759;DHT22;65701;45.588;5.186;2024-03-22T12:04:11;22.70;48.82
76759;DHT22;65701;45.588;5.186;2024-03-22T12:06:42;22.54;46.49
76759;DHT22;65701;45.588;5.186;2024-03-22T12:09:07;22.57;46.87
76759;DHT22;65701;45.588;5.186;2024-03-22T12:11:35;22.60;47.44
76759;DHT22;65701;45.588;5.186;2024-03-22T12:14:00;22.61;47.70
76759;DHT22;65701;45.588;5.186;2024-03-22T12:16:25;22.71;47.58
76759;DHT22;65701;45.588;5.186;2024-03-22T12:18:51;22.52;46.51
76759;DHT22;65701;45.588;5.186;2024-03-22T12:21:16;22.65;46.20
76759;DHT22;65701;45.588;5.186;2024-03-22T12:23:42;22.64;45.90
76759;DHT22;65701;45.588;5.186;2024-03-22T12:26:07;22.61;45.54
76759;DHT22;65701;45.588;5.186;2024-03-22T12:28:33;22.42;44.76
76759;DHT22;65701;45.588;5.186;2024-03-22T12:30:58;22.56;45.34
76759;DHT22;65701;45.588;5.186;2024-03-22T12:33:24;22.53;45.15
76759;DHT22;65701;45.588;5.186;2024-03-22T12:35:49;22.46;44.53
76759;DHT22;65701;45.588;5.186;2024-03-22T12:38:15;22.43;44.62
76759;DHT22;65701;45.588;5.186;2024-03-22T12:40:40;22.39;44.54
76759;DHT22;65701;45.588;5.186;2024-03-22T12:43:09;22.40;44.93
76759;DHT22;65701;45.588;5.186;2024-03-22T12:45:34;22.32;44.72
76759;DHT22;65701;45.588;5.186;2024-03-22T12:48:00;22.36;44.98
76759;DHT22;65701;45.588;5.186;2024-03-22T12:50:26;22.40;45.50
76759;DHT22;65701;45.588;5.186;2024-03-22T12:52:52;22.42;45.92
76759;DHT22;65701;45.588;5.186;2024-03-22T12:55:17;22.44;45.73
76759;DHT22;65701;45.588;5.186;2024-03-22T12:57:43;22.49;46.03
76759;DHT22;65701;45.588;5.186;2024-03-22T13:00:09;22.49;45.84
76759;DHT22;65701;45.588;5.186;2024-03-22T13:02:44;22.49;46.37
76759;DHT22;65701;45.588;5.186;2024-03-22T13:05:10;22.53;46.91
76759;DHT22;65701;45.588;5.186;2024-03-22T13:07:36;22.59;46.99
76759;DHT22;65701;45.588;5.186;2024-03-22T13:10:01;22.60;47.30
76759;DHT22;65701;45.588;5.186;2024-03-22T13:12:28;22.65;47.98
76759;DHT22;65701;45.588;5.186;2024-03-22T13:14:54;22.67;48.15
76759;DHT22;65701;45.588;5.186;2024-03-22T13:17:20;22.74;48.30
76759;DHT22;65701;45.588;5.186;2024-03-22T13:19:46;22.78;48.51
76759;DHT22;65701;45.588;5.186;2024-03-22T13:22:11;22.71;47.04
76759;DHT22;65701;45.588;5.186;2024-03-22T13:24:37;22.64;46.15
76759;DHT22;65701;45.588;5.186;2024-03-22T13:27:03;22.60;46.22
76759;DHT22;65701;45.588;5.186;2024-03-22T13:29:29;22.56;46.51
76759;DHT22;65701;45.588;5.186;2024-03-22T13:31:54;22.54;47.15
76759;DHT22;65701;45.588;5.186;2024-03-22T13:34:20;22.57;47.73
76759;DHT22;65701;45.588;5.186;2024-03-22T13:36:46;22.56;46.96
76759;DHT22;65701;45.588;5.186;2024-03-22T13:39:12;22.52;46.83
76759;DHT22;65701;45.588;5.186;2024-03-22T13:41:41;22.47;46.35
76759;DHT22;65701;45.588;5.186;2024-03-22T13:44:06;22.40;46.46
76759;DHT22;65701;45.588;5.186;2024-03-22T13:46:33;22.40;47.07
76759;DHT22;65701;45.588;5.186;2024-03-22T13:49:03;22.39;47.80
76759;DHT22;65701;45.588;5.186;2024-03-22T13:51:30;22.42;48.41
76759;DHT22;65701;45.588;5.186;2024-03-22T13:53:57;22.42;47.96
76759;DHT22;65701;45.588;5.186;2024-03-22T13:56:22;22.37;47.97
76759;DHT22;65701;45.588;5.186;2024-03-22T13:58:48;22.35;47.81
76759;DHT22;65701;45.588;5.186;2024-03-22T14:01:14;22.32;47.69
76759;DHT22;65701;45.588;5.186;2024-03-22T14:03:40;22.26;47.55
76759;DHT22;65701;45.588;5.186;2024-03-22T14:06:05;22.20;47.00
76759;DHT22;65701;45.588;5.186;2024-03-22T14:08:32;22.20;47.17
76759;DHT22;65701;45.588;5.186;2024-03-22T14:10:58;22.22;48.01
76759;DHT22;65701;45.588;5.186;2024-03-22T14:13:23;22.17;47.42
76759;DHT22;65701;45.588;5.186;2024-03-22T14:15:49;22.16;47.98
76759;DHT22;65701;45.588;5.186;2024-03-22T14:18:14;22.19;48.15
76759;DHT22;65701;45.588;5.186;2024-03-22T14:20:39;22.19;48.35
76759;DHT22;65701;45.588;5.186;2024-03-22T14:23:05;22.19;48.34
76759;DHT22;65701;45.588;5.186;2024-03-22T14:25:32;22.20;48.32
76759;DHT22;65701;45.588;5.186;2024-03-22T14:27:58;22.16;48.10
76759;DHT22;65701;45.588;5.186;2024-03-22T14:30:23;22.09;47.28
76759;DHT22;65701;45.588;5.186;2024-03-22T14:32:51;22.01;46.69
76759;DHT22;65701;45.588;5.186;2024-03-22T14:35:17;21.97;47.00
76759;DHT22;65701;45.588;5.186;2024-03-22T14:37:44;21.92;46.93
76759;DHT22;65701;45.588;5.186;2024-03-22T14:40:11;21.88;47.19
76759;DHT22;65701;45.588;5.186;2024-03-22T14:42:37;21.88;47.91
76759;DHT22;65701;45.588;5.186;2024-03-22T14:45:04;21.85;48.04
76759;DHT22;65701;45.588;5.186;2024-03-22T14:47:30;21.84;48.91
76759;DHT22;65701;45.588;5.186;2024-03-22T14:49:55;21.81;48.56
76759;DHT22;65701;45.588;5.186;2024-03-22T14:52:21;21.75;48.01
76759;DHT22;65701;45.588;5.186;2024-03-22T14:54:47;21.71;47.96
76759;DHT22;65701;45.588;5.186;2024-03-22T14:57:12;21.65;48.43
76759;DHT22;65701;45.588;5.186;2024-03-22T14:59:38;21.65;48.31
76759;DHT22;65701;45.588;5.186;2024-03-22T15:02:04;21.63;48.89
76759;DHT22;65701;45.588;5.186;2024-03-22T15:04:29;21.60;49.05
76759;DHT22;65701;45.588;5.186;2024-03-22T15:06:55;21.57;49.16
76759;DHT22;65701;45.588;5.186;2024-03-22T15:09:20;21.55;49.20
76759;DHT22;65701;45.588;5.186;2024-03-22T15:11:46;21.55;49.73
76759;DHT22;65701;45.588;5.186;2024-03-22T15:14:12;21.54;49.59
76759;DHT22;65701;45.588;5.186;2024-03-22T15:16:41;21.50;49.19
76759;DHT22;65701;45.588;5.186;2024-03-22T15:19:12;21.46;49.55
76759;DHT22;65701;45.588;5.186;2024-03-22T15:21:38;21.43;49.56
76759;DHT22;65701;45.588;5.186;2024-03-22T15:24:04;21.43;49.38